createdAt,value
2018-12-10T00:00:12.615Z,39.63
2018-12-10T00:02:49.115Z,45.60
2018-12-10T00:05:21.862Z,40.83
2018-12-10T00:07:52.707Z,35.63
2018-12-10T00:10:23.813Z,46.70
2018-12-10T00:12:55.334Z,39.23
2018-12-10T00:15:27.689Z,38.17
2018-12-10T00:17:58.671Z,33.10
2018-12-10T00:20:29.625Z,38.60
2018-12-10T00:23:00.650Z,34.90
2018-12-10T00:25:31.635Z,39.50
2018-12-10T00:28:01.626Z,38.67
2018-12-10T00:30:32.863Z,35.97
2018-12-10T00:33:18.782Z,38.27
2018-12-10T00:35:49.698Z,41.30
2018-12-10T00:38:25.615Z,38.03
2018-12-10T00:40:56.704Z,36.23
2018-12-10T00:43:31.191Z,34.07
2018-12-10T00:46:01.635Z,34.17
2018-12-10T00:49:11.352Z,28.73
2018-12-10T00:52:18.539Z,29.53
2018-12-10T00:55:13.328Z,27.23
2018-12-10T00:57:44.444Z,30.43
2018-12-10T01:00:14.835Z,28.00
2018-12-10T01:02:45.741Z,32.90
2018-12-10T01:05:19.303Z,32.67
2018-12-10T01:07:49.725Z,36.00
2018-12-10T01:10:21.339Z,33.77
2018-12-10T01:12:51.650Z,30.27
2018-12-10T01:15:22.725Z,35.17
2018-12-10T01:17:53.638Z,41.80
2018-12-10T01:20:24.937Z,39.33
2018-12-10T01:22:55.807Z,37.60
2018-12-10T01:25:27.681Z,34.07
2018-12-10T01:27:58.085Z,38.33
2018-12-10T01:30:30.273Z,33.33
2018-12-10T01:33:02.319Z,35.50
2018-12-10T01:35:33.616Z,31.73
2018-12-10T01:38:04.641Z,28.50
2018-12-10T01:40:36.638Z,29.27
2018-12-10T01:43:07.419Z,27.23
2018-12-10T01:45:38.350Z,19.17
2018-12-10T01:48:22.646Z,17.83
2018-12-10T01:55:03.561Z,14.07
2018-12-10T01:57:36.798Z,11.50
2018-12-10T02:00:10.651Z,12.63
2018-12-10T02:02:41.733Z,16.63
2018-12-10T02:05:18.002Z,15.07
2018-12-10T02:07:51.672Z,14.03
2018-12-10T02:10:23.490Z,11.63
2018-12-10T02:12:54.619Z,18.90
2018-12-10T02:15:25.784Z,15.57
2018-12-10T02:17:56.159Z,16.83
2018-12-10T02:20:27.937Z,16.30
2018-12-10T02:23:02.372Z,14.67
2018-12-10T02:25:32.630Z,18.90
2018-12-10T02:28:04.524Z,13.00
2018-12-10T02:30:35.329Z,19.03
2018-12-10T02:33:07.347Z,16.63
2018-12-10T02:35:37.709Z,20.30
2018-12-10T02:38:08.561Z,23.03
2018-12-10T02:40:45.734Z,19.83
2018-12-10T02:43:15.777Z,25.30
2018-12-10T02:45:52.891Z,12.57
2018-12-10T02:48:23.869Z,15.30
2018-12-10T02:50:56.943Z,14.83
2018-12-10T02:53:29.290Z,15.80
2018-12-10T02:56:03.400Z,15.07
2018-12-10T02:58:34.680Z,16.37
2018-12-10T03:01:04.729Z,13.77
2018-12-10T03:03:37.938Z,14.37
2018-12-10T03:06:08.679Z,17.70
2018-12-10T03:08:39.475Z,16.63
2018-12-10T03:11:10.708Z,15.10
2018-12-10T03:13:41.291Z,15.10
2018-12-10T03:16:11.645Z,18.63
2018-12-10T03:18:47.636Z,15.00
2018-12-10T03:21:40.905Z,16.73
2018-12-10T03:24:12.524Z,17.70
2018-12-10T03:26:43.601Z,16.57
2018-12-10T03:29:19.675Z,16.00
2018-12-10T03:31:51.597Z,21.93
2018-12-10T03:34:21.669Z,14.53
2018-12-10T03:36:51.727Z,19.07
2018-12-10T03:39:23.604Z,22.37
2018-12-10T03:41:53.656Z,15.23
2018-12-10T03:44:25.378Z,14.53
2018-12-10T03:46:56.357Z,16.10
2018-12-10T03:49:26.795Z,11.80
2018-12-10T03:52:05.828Z,12.47
2018-12-10T03:57:15.798Z,12.97
2018-12-10T04:00:05.103Z,11.07
2018-12-10T04:02:36.505Z,12.43
2018-12-10T04:05:06.693Z,12.03
2018-12-10T04:07:37.692Z,12.30
2018-12-10T04:10:07.678Z,10.90
2018-12-10T04:12:39.620Z,16.73
2018-12-10T04:15:10.693Z,8.93
2018-12-10T04:17:41.650Z,12.00
2018-12-10T04:20:18.658Z,12.50
2018-12-10T04:22:49.632Z,11.63
2018-12-10T04:25:29.037Z,13.07
2018-12-10T04:28:14.944Z,8.73
2018-12-10T04:30:46.720Z,15.53
2018-12-10T04:33:20.665Z,12.90
2018-12-10T04:35:50.710Z,12.40
2018-12-10T04:38:27.522Z,16.77
2018-12-10T04:40:59.831Z,14.87
2018-12-10T04:43:30.762Z,17.73
2018-12-10T04:46:03.944Z,20.03
2018-12-10T04:48:40.528Z,19.90
2018-12-10T04:51:10.690Z,15.40
2018-12-10T04:53:42.446Z,19.97
2018-12-10T04:56:13.334Z,21.13
2018-12-10T04:58:44.615Z,19.40
2018-12-10T05:01:15.567Z,17.93
2018-12-10T05:03:46.392Z,16.73
2018-12-10T05:06:17.942Z,24.63
2018-12-10T05:08:48.655Z,20.13
2018-12-10T05:11:18.622Z,17.90
2018-12-10T05:13:49.800Z,22.87
2018-12-10T05:16:20.619Z,20.80
2018-12-10T05:18:52.500Z,22.57
2018-12-10T05:21:24.330Z,22.47
2018-12-10T05:23:54.857Z,20.30
2018-12-10T05:26:25.557Z,18.23
2018-12-10T05:28:59.785Z,20.70
2018-12-10T05:35:15.756Z,12.17
2018-12-10T05:37:46.683Z,18.60
2018-12-10T05:40:17.640Z,16.30
2018-12-10T05:42:48.660Z,18.40
2018-12-10T05:45:20.526Z,13.67
2018-12-10T05:48:00.429Z,13.00
2018-12-10T05:50:34.353Z,8.60
2018-12-10T05:53:05.661Z,11.60
2018-12-10T05:55:36.640Z,11.07
2018-12-10T05:58:07.886Z,9.20
2018-12-10T06:00:38.809Z,10.37
2018-12-10T06:03:10.322Z,9.53
2018-12-10T06:05:42.628Z,8.27
2018-12-10T06:08:15.662Z,12.40
2018-12-10T06:10:47.657Z,11.93
2018-12-10T06:13:18.633Z,8.60
2018-12-10T06:15:49.869Z,7.07
2018-12-10T06:18:21.358Z,6.00
2018-12-10T06:20:52.824Z,5.53
2018-12-10T06:23:24.658Z,6.03
2018-12-10T06:25:56.638Z,6.77
2018-12-10T06:28:28.619Z,6.53
2018-12-10T06:31:00.833Z,7.17
2018-12-10T06:33:33.570Z,8.33
2018-12-10T06:36:06.778Z,12.17
2018-12-10T06:38:42.020Z,8.40
2018-12-10T06:41:14.312Z,16.70
2018-12-10T06:43:44.647Z,7.47
2018-12-10T06:46:18.468Z,8.83
2018-12-10T06:48:50.687Z,6.30
2018-12-10T06:51:22.679Z,6.07
2018-12-10T06:53:54.649Z,6.53
2018-12-10T06:56:30.820Z,7.70
2018-12-10T06:59:02.960Z,12.43
2018-12-10T07:01:35.307Z,7.07
2018-12-10T07:04:07.785Z,23.63
2018-12-10T07:06:38.796Z,8.13
2018-12-10T07:09:12.868Z,7.97
2018-12-10T07:11:44.289Z,6.70
2018-12-10T07:14:18.636Z,5.73
2018-12-10T07:16:50.858Z,6.07
2018-12-10T07:19:21.806Z,4.90
2018-12-10T07:21:51.765Z,7.27
2018-12-10T07:24:24.899Z,5.03
2018-12-10T07:26:56.812Z,5.47
2018-12-10T07:29:28.660Z,7.43
2018-12-10T07:31:58.893Z,6.03
2018-12-10T07:34:31.675Z,5.13
2018-12-10T07:37:07.734Z,5.10
2018-12-10T07:39:43.666Z,14.70
2018-12-10T07:42:14.330Z,4.10
2018-12-10T07:44:46.685Z,4.47
2018-12-10T07:47:17.658Z,5.40
2018-12-10T07:49:49.128Z,8.37
2018-12-10T07:52:21.321Z,15.40
2018-12-10T07:54:53.326Z,5.17
2018-12-10T07:57:25.681Z,9.53
2018-12-10T07:59:56.913Z,6.77
2018-12-10T08:02:27.782Z,6.60
2018-12-10T08:05:12.168Z,8.10
2018-12-10T08:07:37.686Z,11.50
2018-12-10T08:10:08.793Z,5.17
2018-12-10T08:12:40.366Z,13.63
2018-12-10T08:15:12.636Z,6.47
2018-12-10T08:17:42.738Z,5.00
2018-12-10T08:31:13.700Z,9.07
2018-12-10T08:33:45.335Z,11.83
2018-12-10T08:36:22.639Z,10.80
2018-12-10T08:38:54.629Z,10.13
2018-12-10T08:41:27.034Z,16.07
2018-12-10T08:43:59.919Z,18.63
2018-12-10T08:46:32.947Z,13.07
2018-12-10T08:49:04.662Z,16.07
2018-12-10T08:51:36.706Z,18.87
2018-12-10T08:54:09.917Z,22.80
2018-12-10T08:56:43.683Z,16.40
2018-12-10T08:59:16.651Z,21.93
2018-12-10T09:01:47.721Z,20.67
2018-12-10T09:04:19.657Z,17.83
2018-12-10T09:06:51.668Z,19.33
2018-12-10T09:09:23.761Z,16.90
2018-12-10T09:11:53.779Z,19.43
2018-12-10T09:14:24.895Z,15.00
2018-12-10T09:16:56.630Z,17.60
2018-12-10T09:19:28.638Z,14.43
2018-12-10T09:22:06.838Z,16.50
2018-12-10T09:24:47.631Z,14.93
2018-12-10T09:27:19.330Z,21.33
2018-12-10T09:29:56.783Z,21.87
2018-12-10T09:32:28.083Z,18.43
2018-12-10T09:35:00.823Z,20.27
2018-12-10T09:37:31.983Z,17.67
2018-12-10T09:40:03.648Z,21.73
2018-12-10T09:42:34.715Z,22.50
2018-12-10T09:45:07.918Z,25.33
2018-12-10T09:47:39.314Z,19.50
2018-12-10T09:50:14.351Z,17.80
2018-12-10T09:52:46.753Z,19.60
2018-12-10T09:55:18.823Z,19.23
2018-12-10T10:00:44.785Z,17.33
2018-12-10T10:03:16.916Z,22.80
2018-12-10T10:05:49.025Z,18.13
2018-12-10T10:08:21.799Z,18.87
2018-12-10T10:10:53.550Z,26.63
2018-12-10T10:13:24.856Z,24.37
2018-12-10T10:15:56.916Z,22.50
2018-12-10T10:18:27.815Z,30.40
2018-12-10T10:20:58.764Z,22.40
2018-12-10T10:23:31.943Z,22.47
2018-12-10T10:26:03.035Z,30.70
2018-12-10T10:28:33.880Z,23.60
2018-12-10T10:31:06.668Z,21.17
2018-12-10T10:33:37.727Z,22.20
2018-12-10T10:36:09.394Z,23.40
2018-12-10T10:38:40.743Z,24.70
2018-12-10T10:41:12.435Z,22.27
2018-12-10T10:43:43.591Z,27.17
2018-12-10T10:46:15.659Z,25.40
2018-12-10T10:48:46.357Z,18.97
2018-12-10T10:51:17.756Z,23.43
2018-12-10T10:53:49.618Z,21.07
2018-12-10T10:56:21.719Z,24.97
2018-12-10T10:58:59.766Z,22.07
2018-12-10T11:01:37.567Z,20.50
2018-12-10T11:04:10.588Z,22.73
2018-12-10T11:06:49.993Z,28.57
2018-12-10T11:09:21.796Z,31.53
2018-12-10T11:11:53.348Z,23.83
2018-12-10T11:14:25.701Z,21.07
2018-12-10T11:16:56.929Z,22.43
2018-12-10T11:19:28.800Z,23.53
2018-12-10T11:21:59.861Z,26.93
2018-12-10T11:24:31.923Z,20.53
2018-12-10T11:27:03.616Z,20.83
2018-12-10T11:29:37.793Z,19.00
2018-12-10T11:32:15.855Z,19.93
2018-12-10T11:34:48.479Z,20.13
2018-12-10T11:37:19.638Z,18.30
2018-12-10T11:39:52.607Z,22.93
2018-12-10T11:42:25.982Z,17.53
2018-12-10T11:44:58.792Z,18.73
2018-12-10T11:47:35.018Z,25.83
2018-12-10T11:50:08.707Z,19.90
2018-12-10T11:52:39.546Z,18.93
2018-12-10T11:55:09.899Z,24.37
2018-12-10T11:57:40.939Z,18.50
2018-12-10T12:00:14.682Z,28.87
2018-12-10T12:02:49.265Z,19.07
2018-12-10T12:05:20.601Z,21.93
2018-12-10T12:07:52.429Z,16.27
2018-12-10T12:10:22.786Z,18.30
2018-12-10T12:12:52.803Z,20.13
2018-12-10T12:15:23.644Z,21.90
2018-12-10T12:17:55.337Z,19.07
2018-12-10T12:20:26.691Z,23.47
2018-12-10T12:22:58.317Z,21.83
2018-12-10T12:25:28.797Z,18.87
2018-12-10T12:28:00.793Z,20.73
2018-12-10T12:30:32.623Z,23.07
2018-12-10T12:33:03.838Z,23.93
2018-12-10T12:35:35.387Z,19.43
2018-12-10T12:38:05.753Z,28.20
2018-12-10T12:40:36.625Z,18.17
2018-12-10T12:43:15.851Z,17.10
2018-12-10T12:45:39.794Z,22.77
2018-12-10T12:48:12.835Z,19.97
2018-12-10T12:50:43.867Z,23.33
2018-12-10T12:53:15.635Z,20.63
2018-12-10T12:55:47.667Z,18.63
2018-12-10T12:58:17.795Z,22.40
2018-12-10T13:00:49.682Z,26.20
2018-12-10T13:03:19.833Z,25.17
2018-12-10T13:05:52.338Z,19.03
2018-12-10T13:08:30.823Z,18.77
2018-12-10T13:10:58.962Z,20.97
2018-12-10T13:13:29.797Z,23.37
2018-12-10T13:16:02.814Z,18.13
2018-12-10T13:18:34.588Z,19.33
2018-12-10T13:21:06.563Z,19.70
2018-12-10T13:23:38.688Z,32.60
2018-12-10T13:26:10.647Z,20.10
2018-12-10T13:28:41.148Z,27.37
2018-12-10T13:31:12.715Z,21.17
2018-12-10T13:33:45.696Z,18.90
2018-12-10T13:36:17.330Z,34.87
2018-12-10T13:38:47.894Z,24.23
2018-12-10T13:41:33.353Z,22.67
2018-12-10T13:44:12.718Z,25.53
2018-12-10T13:46:45.660Z,26.63
2018-12-10T13:49:17.656Z,31.67
2018-12-10T13:51:49.659Z,23.80
2018-12-10T13:54:20.748Z,22.43
2018-12-10T13:56:51.677Z,25.87
2018-12-10T13:59:21.886Z,22.33
2018-12-10T14:01:53.858Z,22.57
2018-12-10T14:04:31.790Z,22.17
2018-12-10T14:07:03.635Z,28.30
2018-12-10T14:09:33.833Z,24.50
2018-12-10T14:12:04.683Z,24.10
2018-12-10T14:14:36.342Z,24.07
2018-12-10T14:17:07.343Z,17.60
2018-12-10T14:19:42.307Z,31.67
2018-12-10T14:22:15.940Z,31.17
2018-12-10T14:24:48.737Z,24.53
2018-12-10T14:27:21.667Z,19.20
2018-12-10T14:29:51.897Z,23.97
2018-12-10T14:32:24.616Z,17.33
2018-12-10T14:34:55.663Z,20.97
2018-12-10T14:37:27.876Z,25.77
2018-12-10T14:39:58.727Z,18.97
2018-12-10T14:42:31.667Z,14.97
2018-12-10T14:45:04.642Z,16.93
2018-12-10T14:47:36.795Z,24.03
2018-12-10T14:57:30.161Z,18.83
2018-12-10T15:00:01.639Z,25.23
2018-12-10T15:02:42.930Z,25.00
2018-12-10T15:05:15.689Z,32.77
2018-12-10T15:07:48.670Z,33.37
2018-12-10T15:10:23.306Z,27.83
2018-12-10T15:12:53.668Z,25.20
2018-12-10T15:15:26.309Z,28.57
2018-12-10T15:17:57.608Z,27.40
2018-12-10T15:20:28.808Z,25.43
2018-12-10T15:22:59.890Z,23.63
2018-12-10T15:25:32.631Z,21.07
2018-12-10T15:28:04.705Z,24.07
2018-12-10T15:30:36.648Z,29.03
2018-12-10T15:33:10.665Z,20.63
2018-12-10T15:35:42.637Z,26.40
2018-12-10T15:38:18.678Z,28.47
2018-12-10T15:40:50.671Z,31.83
2018-12-10T15:43:23.671Z,31.60
2018-12-10T15:45:56.652Z,49.40
2018-12-10T15:48:28.703Z,35.43
2018-12-10T15:51:00.699Z,30.23
2018-12-10T15:53:33.835Z,26.97
2018-12-10T15:56:04.868Z,28.63
2018-12-10T15:58:36.668Z,22.77
2018-12-10T16:01:06.540Z,25.07
2018-12-10T16:03:36.875Z,20.97
2018-12-10T16:06:10.635Z,25.10
2018-12-10T16:08:40.939Z,29.10
2018-12-10T16:11:13.649Z,32.30
2018-12-10T16:13:45.669Z,26.60
2018-12-10T16:16:16.868Z,24.67
2018-12-10T16:18:49.539Z,39.37
2018-12-10T16:21:19.885Z,34.70
2018-12-10T16:23:50.555Z,26.57
2018-12-10T16:26:21.853Z,32.20
2018-12-10T16:28:55.632Z,35.07
2018-12-10T16:31:30.366Z,37.03
2018-12-10T16:34:01.643Z,33.77
2018-12-10T16:36:33.820Z,37.83
2018-12-10T16:39:05.845Z,33.20
2018-12-10T16:41:38.304Z,28.20
2018-12-10T16:44:10.005Z,31.87
2018-12-10T16:46:41.848Z,29.80
2018-12-10T16:49:13.031Z,31.53
2018-12-10T16:51:45.685Z,39.30
2018-12-10T16:54:16.991Z,35.23
2018-12-10T16:56:48.953Z,30.80
2018-12-10T16:59:19.992Z,41.40
2018-12-10T17:01:51.712Z,32.70
2018-12-10T17:04:22.919Z,33.60
2018-12-10T17:06:55.626Z,41.23
2018-12-10T17:09:27.717Z,39.50
2018-12-10T17:11:59.736Z,40.10
2018-12-10T17:14:31.013Z,37.20
2018-12-10T17:17:03.846Z,42.50
2018-12-10T17:19:36.638Z,43.83
2018-12-10T17:22:09.009Z,37.50
2018-12-10T17:24:45.799Z,41.93
2018-12-10T17:27:19.971Z,42.80
2018-12-10T17:29:52.687Z,43.47
2018-12-10T17:32:24.740Z,44.90
2018-12-10T17:34:56.676Z,46.97
2018-12-10T17:37:34.337Z,42.33
2018-12-10T17:40:06.644Z,48.47
2018-12-10T17:42:38.734Z,44.53
2018-12-10T17:45:11.326Z,45.60
2018-12-10T17:47:42.722Z,50.87
2018-12-10T17:50:19.225Z,54.80
2018-12-10T17:52:50.637Z,38.07
2018-12-10T17:55:22.834Z,38.13
2018-12-10T17:57:54.635Z,39.17
2018-12-10T18:00:25.929Z,32.10
2018-12-10T18:03:01.564Z,33.57
2018-12-10T18:05:41.149Z,35.73
2018-12-10T18:08:11.736Z,38.80
2018-12-10T18:10:43.940Z,28.37
2018-12-10T18:13:15.620Z,34.60
2018-12-10T18:15:47.139Z,33.17
2018-12-10T18:18:19.611Z,49.13
2018-12-10T18:20:51.467Z,28.50
2018-12-10T18:23:22.690Z,28.40
2018-12-10T18:26:00.887Z,24.73
2018-12-10T18:28:41.675Z,37.20
2018-12-10T18:31:15.661Z,38.27
2018-12-10T18:33:46.928Z,28.37
2018-12-10T18:36:19.694Z,30.47
2018-12-10T18:38:54.478Z,24.63
2018-12-10T18:41:28.050Z,25.00
2018-12-10T18:44:02.086Z,27.47
2018-12-10T18:46:40.306Z,34.97
2018-12-10T18:49:11.991Z,33.67
2018-12-10T18:51:44.782Z,40.07
2018-12-10T18:54:16.703Z,37.67
2018-12-10T18:56:55.242Z,33.43
2018-12-10T18:59:28.692Z,40.60
2018-12-10T19:02:00.643Z,45.27
2018-12-10T19:04:32.677Z,42.50
2018-12-10T19:07:03.976Z,42.50
2018-12-10T19:09:37.899Z,33.33
2018-12-10T19:12:14.485Z,47.57
2018-12-10T19:14:49.880Z,40.67
2018-12-10T19:17:21.706Z,40.27
2018-12-10T19:19:53.713Z,35.40
2018-12-10T19:22:25.757Z,38.63
2018-12-10T19:25:01.125Z,35.73
2018-12-10T19:27:33.960Z,34.20
2018-12-10T19:30:08.958Z,36.50
2018-12-10T19:32:40.640Z,40.93
2018-12-10T19:35:11.843Z,38.10
2018-12-10T19:37:47.736Z,39.93
2018-12-10T19:40:23.228Z,38.93
2018-12-10T19:42:54.799Z,43.47
2018-12-10T19:45:26.763Z,43.40
2018-12-10T19:47:58.387Z,41.57
2018-12-10T19:50:29.846Z,33.10
2018-12-10T19:53:01.395Z,41.90
2018-12-10T20:06:11.786Z,43.90
2018-12-10T20:08:42.852Z,44.40
2018-12-10T20:14:01.731Z,42.30
2018-12-10T20:16:34.742Z,35.03
2018-12-10T20:19:08.751Z,27.17
2018-12-10T20:21:41.668Z,36.23
2018-12-10T20:24:14.735Z,44.00
2018-12-10T20:26:48.726Z,37.47
2018-12-10T20:29:21.958Z,36.73
2018-12-10T20:31:54.667Z,34.83
2018-12-10T20:34:26.861Z,36.00
2018-12-10T20:36:58.661Z,32.23
2018-12-10T20:39:31.676Z,33.93
2018-12-10T20:42:03.697Z,33.67
2018-12-10T20:44:37.834Z,47.07
2018-12-10T20:47:09.500Z,42.87
2018-12-10T20:52:57.268Z,29.90
2018-12-10T20:55:28.890Z,40.80
2018-12-10T20:58:00.473Z,33.53
2018-12-10T21:00:32.721Z,36.13
2018-12-10T21:03:05.470Z,40.90
2018-12-10T21:05:42.791Z,39.00
2018-12-10T21:08:14.637Z,30.53
2018-12-10T21:10:46.503Z,33.67
2018-12-10T21:13:17.706Z,40.43
2018-12-10T21:15:48.645Z,38.27
2018-12-10T21:18:20.655Z,29.63
2018-12-10T21:20:52.562Z,48.37
2018-12-10T21:23:24.652Z,38.87
2018-12-10T21:25:56.697Z,29.27
2018-12-10T21:28:29.658Z,39.33
2018-12-10T21:31:01.551Z,32.90
2018-12-10T21:33:33.849Z,37.37
2018-12-10T21:36:05.629Z,40.20
2018-12-10T21:38:36.850Z,36.80
2018-12-10T21:41:09.632Z,47.53
2018-12-10T21:43:41.858Z,45.37
2018-12-10T21:46:15.709Z,43.07
2018-12-10T21:48:46.934Z,40.57
2018-12-10T21:51:19.710Z,45.77
2018-12-10T21:53:51.644Z,46.17
2018-12-10T21:56:22.679Z,43.00
2018-12-10T21:58:54.664Z,43.57
2018-12-10T22:01:26.700Z,44.43
2018-12-10T22:03:59.635Z,33.43
2018-12-10T22:06:35.888Z,40.60
2018-12-10T22:09:08.671Z,44.23
2018-12-10T22:11:42.630Z,47.40
2018-12-10T22:14:14.707Z,47.23
2018-12-10T22:16:46.676Z,34.77
2018-12-10T22:19:19.833Z,47.10
2018-12-10T22:21:51.896Z,48.50
2018-12-10T22:24:23.689Z,45.63
2018-12-10T22:26:55.660Z,41.93
2018-12-10T22:29:29.123Z,45.33
2018-12-10T22:32:03.714Z,39.97
2018-12-10T22:34:35.868Z,39.30
2018-12-10T22:37:06.759Z,26.83
2018-12-10T22:39:39.031Z,40.17
2018-12-10T22:42:16.707Z,36.77
2018-12-10T22:44:50.830Z,38.60
2018-12-10T22:47:21.929Z,38.67
2018-12-10T22:49:53.868Z,30.00
2018-12-10T22:52:26.640Z,40.63
2018-12-10T22:55:01.410Z,30.80
2018-12-10T22:57:33.319Z,30.90
2018-12-10T23:00:05.838Z,28.63
2018-12-10T23:02:38.857Z,35.87
2018-12-10T23:05:10.661Z,34.20
2018-12-10T23:07:44.665Z,33.77
2018-12-10T23:10:17.937Z,28.73
2018-12-10T23:12:49.681Z,29.93
2018-12-10T23:15:21.660Z,33.93
2018-12-10T23:17:53.827Z,27.33
2018-12-10T23:20:25.636Z,30.43
2018-12-10T23:28:11.802Z,33.80
2018-12-10T23:30:43.665Z,28.30
2018-12-10T23:33:14.580Z,27.13
2018-12-10T23:35:45.936Z,30.27
2018-12-10T23:38:17.625Z,28.17
2018-12-10T23:40:49.983Z,33.27
2018-12-10T23:43:26.669Z,35.90
2018-12-10T23:45:59.634Z,34.80
2018-12-10T23:48:30.685Z,29.10
2018-12-10T23:51:02.649Z,31.90
2018-12-10T23:53:34.626Z,31.27
2018-12-10T23:56:06.635Z,32.50
2018-12-10T23:58:37.322Z,38.77
